Time;durP1;ratioP1;P1;durP2;ratioP2;P2;SDS_P1;SDS_P2;PMS_P1;PMS_P2;Temp;Humidity;BMP_temperature;BMP_pressure;BME280_temperature;BME280_humidity;BME280_pressure;Samples;Min_cycle;Max_cycle;Signal;HPM_P1;HPM_P2
2023/04/30 04:31:26;;;;;;;24.02;11.82;;;14.00;78.20;;;;;;5419875;23;20141;-79
2023/04/30 04:33:57;;;;;;;25.40;14.00;;;13.80;78.80;;;;;;4950069;29;20110;-78
2023/04/30 04:36:27;;;;;;;29.88;13.77;;;13.70;79.60;;;;;;4957536;29;20087;-79
2023/04/30 04:38:56;;;;;;;32.15;13.98;;;13.70;80.30;;;;;;4956748;29;20019;-79
2023/04/30 04:41:23;;;;;;;27.08;12.75;;;13.60;80.40;;;;;;4946036;29;20087;-79
2023/04/30 04:43:49;;;;;;;29.08;14.30;;;13.70;80.40;;;;;;4938772;29;20019;-79
2023/04/30 04:46:15;;;;;;;26.90;12.85;;;13.70;80.20;;;;;;4938535;29;20136;-79
2023/04/30 04:48:41;;;;;;;25.95;13.27;;;13.60;80.30;;;;;;4938554;29;20039;-79
2023/04/30 04:51:08;;;;;;;24.63;11.77;;;13.60;80.50;;;;;;4951765;29;20446;-79
2023/04/30 04:53:33;;;;;;;24.40;12.88;;;13.60;80.50;;;;;;4940413;29;20038;-79
2023/04/30 04:55:59;;;;;;;25.15;13.35;;;13.60;80.70;;;;;;4957226;29;20027;-79
2023/04/30 04:58:25;;;;;;;29.60;14.32;;;13.60;80.60;;;;;;4939289;29;20030;-79
2023/04/30 05:00:51;;;;;;;26.33;13.07;;;13.60;80.70;;;;;;4953651;28;20039;-79
2023/04/30 05:03:19;;;;;;;23.33;12.88;;;13.60;80.80;;;;;;4952964;28;20051;-79
2023/04/30 05:05:45;;;;;;;27.45;13.73;;;13.50;80.80;;;;;;4942414;29;20047;-79
2023/04/30 05:08:11;;;;;;;23.65;11.32;;;13.50;80.80;;;;;;4950406;29;20016;-79
2023/04/30 05:10:37;;;;;;;26.10;12.80;;;13.50;80.70;;;;;;4938531;29;20040;-79
2023/04/30 05:13:02;;;;;;;29.95;13.48;;;13.50;80.60;;;;;;4941808;29;20030;-79
2023/04/30 05:15:28;;;;;;;27.10;12.60;;;13.60;80.50;;;;;;4957083;29;20103;-79
2023/04/30 05:17:54;;;;;;;23.27;11.38;;;13.60;80.40;;;;;;4955191;29;20086;-79
2023/04/30 05:20:20;;;;;;;24.58;12.52;;;13.60;80.40;;;;;;4944999;29;20038;-79
2023/04/30 05:22:45;;;;;;;26.27;11.93;;;13.60;80.00;;;;;;4921247;29;20119;-79
2023/04/30 05:25:11;;;;;;;22.52;12.60;;;13.70;80.00;;;;;;4938475;29;20392;-79
2023/04/30 05:27:36;;;;;;;22.40;11.82;;;13.70;79.60;;;;;;4942451;29;20081;-79
2023/04/30 05:30:02;;;;;;;25.88;11.60;;;13.70;79.50;;;;;;4957585;29;20039;-79
2023/04/30 05:32:28;;;;;;;22.45;12.27;;;13.70;79.20;;;;;;4940058;29;20052;-79
2023/04/30 05:34:54;;;;;;;27.50;11.65;;;13.80;79.00;;;;;;4957465;29;20035;-79
2023/04/30 05:37:21;;;;;;;27.75;12.85;;;13.70;79.10;;;;;;4939671;29;20031;-79
2023/04/30 05:39:47;;;;;;;23.98;11.85;;;13.70;79.40;;;;;;4957369;28;20024;-79
2023/04/30 05:42:13;;;;;;;26.02;12.52;;;13.60;79.70;;;;;;4961294;29;20029;-79
2023/04/30 05:44:40;;;;;;;22.23;12.40;;;13.60;79.80;;;;;;4949413;29;20059;-79
2023/04/30 05:47:05;;;;;;;29.70;12.75;;;13.60;79.80;;;;;;4942115;29;20028;-79
2023/04/30 05:49:31;;;;;;;24.45;12.18;;;13.60;80.00;;;;;;4925360;28;20020;-79
2023/04/30 05:51:57;;;;;;;21.58;10.95;;;13.60;79.50;;;;;;4963977;28;20486;-79
2023/04/30 05:54:22;;;;;;;22.45;11.77;;;13.70;79.50;;;;;;4960194;29;20494;-79
2023/04/30 05:56:48;;;;;;;22.17;11.85;;;13.70;79.40;;;;;;4961189;29;20030;-79
2023/04/30 05:59:13;;;;;;;24.73;12.15;;;13.70;79.90;;;;;;4961374;29;20041;-79
2023/04/30 06:01:40;;;;;;;20.77;10.98;;;13.80;79.00;;;;;;4942469;29;20028;-79
2023/04/30 06:04:07;;;;;;;21.95;11.57;;;13.90;78.60;;;;;;4960991;29;20083;-79
2023/04/30 06:06:32;;;;;;;21.90;12.18;;;13.90;78.40;;;;;;4960048;29;20027;-79
2023/04/30 06:08:58;;;;;;;28.70;14.18;;;13.90;78.30;;;;;;4959738;29;20034;-79
2023/04/30 06:11:24;;;;;;;24.42;12.75;;;13.90;78.20;;;;;;4960894;29;20027;-79
2023/04/30 06:13:50;;;;;;;26.85;13.93;;;13.80;78.40;;;;;;4960448;29;20031;-78
2023/04/30 06:16:35;;;;;;;21.27;11.65;;;13.80;78.30;;;;;;4942877;29;20035;-87
2023/04/30 06:19:41;;;;;;;19.65;11.27;;;13.90;78.10;;;;;;4954133;28;20125;-83
2023/04/30 06:22:12;;;;;;;24.95;12.65;;;13.90;77.60;;;;;;4941542;29;20043;-81
2023/04/30 06:25:14;;;;;;;;;;;;;;;;;;;;;
2023/04/30 06:31:44;;;;;;;24.50;12.00;;;13.90;77.80;;;;;;4947485;29;20078;-83
2023/04/30 06:34:12;;;;;;;22.08;11.32;;;14.00;77.60;;;;;;4960222;29;20439;-85
2023/04/30 06:37:03;;;;;;;22.40;11.65;;;14.10;77.30;;;;;;4959444;29;20050;-83
2023/04/30 06:39:44;;;;;;;20.98;11.68;;;14.00;77.00;;;;;;4962054;28;20023;-84
2023/04/30 06:42:09;;;;;;;24.48;12.68;;;13.90;77.10;;;;;;4955016;29;20040;-83
2023/04/30 06:44:38;;;;;;;17.60;11.07;;;14.00;77.10;;;;;;4941795;29;20079;-87
2023/04/30 06:47:06;;;;;;;19.38;11.15;;;14.00;77.30;;;;;;4941578;29;20027;-87
2023/04/30 06:50:14;;;;;;;23.00;12.07;;;14.10;77.30;;;;;;4945116;29;20032;-93
2023/04/30 06:56:55;;;;;;;21.25;12.27;;;14.20;76.60;;;;;;4918810;29;20032;-85
2023/04/30 07:00:18;;;;;;;;;;;;;;;;;;;;;
2023/04/30 07:06:06;;;;;;;21.83;11.15;;;14.80;75.50;;;;;;4959606;29;20050;-81
2023/04/30 07:08:56;;;;;;;24.80;12.82;;;14.90;74.20;;;;;;4942117;29;20027;-83
2023/04/30 07:12:03;;;;;;;22.23;11.80;;;14.80;74.90;;;;;;4949179;29;20031;-86
2023/04/30 07:14:28;;;;;;;19.17;10.82;;;14.70;75.00;;;;;;4958911;29;20098;-83
2023/04/30 07:17:50;;;;;;;20.48;11.10;;;14.70;75.40;;;;;;4952965;29;20467;-87
2023/04/30 07:23:45;;;;;;;18.98;10.57;;;15.00;74.60;;;;;;4891852;29;20051;-78
2023/04/30 07:29:45;;;;;;;24.60;12.02;;;15.10;74.00;;;;;;4957904;28;20078;-90
2023/04/30 07:48:40;;;;;;;17.10;10.07;;;18.30;65.90;;;;;;4949736;23;20394;-84
2023/04/30 07:52:37;;;;;;;16.25;10.13;;;18.50;65.30;;;;;;4914991;29;20032;-94
2023/04/30 07:55:39;;;;;;;;;;;;;;;;;;;;;
2023/04/30 07:57:54;;;;;;;16.35;10.57;;;18.90;64.50;;;;;;4853386;29;20033;-81
2023/04/30 08:00:29;;;;;;;;;;;;;;;;;;;;;
2023/04/30 08:02:59;;;;;;;16.45;10.23;;;18.80;63.50;;;;;;4925203;29;20111;-84
2023/04/30 08:05:35;;;;;;;19.27;11.73;;;18.80;63.80;;;;;;4903559;29;20153;-81
2023/04/30 08:08:01;;;;;;;19.70;10.32;;;18.50;64.00;;;;;;4908979;29;20046;-82
2023/04/30 08:10:26;;;;;;;18.52;10.63;;;18.30;65.10;;;;;;4921732;29;20028;-81
2023/04/30 08:12:55;;;;;;;17.73;9.95;;;18.30;65.70;;;;;;4919928;29;20112;-85
2023/04/30 08:15:23;;;;;;;18.80;10.48;;;18.60;65.00;;;;;;4925550;29;20024;-81
2023/04/30 08:17:51;;;;;;;17.55;9.88;;;18.70;64.40;;;;;;4907044;29;20078;-85
2023/04/30 08:20:36;;;;;;;;;;;;;;;;;;;;;
2023/04/30 08:26:53;;;;;;;16.45;9.35;;;19.40;62.30;;;;;;4761564;30;20052;-83
2023/04/30 08:29:18;;;;;;;16.17;10.80;;;19.60;61.60;;;;;;4744845;30;20036;-87
2023/04/30 08:31:45;;;;;;;16.52;9.75;;;19.60;61.30;;;;;;4801321;29;20039;-86
2023/04/30 08:41:17;;;;;;;16.90;10.02;;;19.80;60.10;;;;;;4832985;29;20101;-87
2023/04/30 08:43:52;;;;;;;14.57;9.25;;;21.50;57.70;;;;;;4811497;29;20054;-91
2023/04/30 08:46:44;;;;;;;17.42;10.63;;;21.50;56.70;;;;;;4825837;29;20038;-83
2023/04/30 08:49:32;;;;;;;18.08;10.30;;;21.20;57.30;;;;;;4817715;29;20055;-90
2023/04/30 08:52:00;;;;;;;18.90;11.95;;;20.70;58.90;;;;;;4840547;29;20084;-85
2023/04/30 08:54:29;;;;;;;16.65;10.88;;;20.10;60.10;;;;;;4843722;29;20059;-86
2023/04/30 08:56:55;;;;;;;16.23;10.38;;;19.60;61.50;;;;;;4920019;29;20056;-86
2023/04/30 08:59:20;;;;;;;15.13;10.10;;;19.30;62.60;;;;;;4923156;29;20751;-86
2023/04/30 09:01:46;;;;;;;16.20;9.40;;;19.30;63.40;;;;;;4932066;29;20121;-86
2023/04/30 09:04:12;;;;;;;17.60;10.27;;;19.30;63.10;;;;;;4914998;29;20644;-86
2023/04/30 09:06:37;;;;;;;16.98;9.93;;;19.50;63.40;;;;;;4929645;29;20032;-86
2023/04/30 09:09:12;;;;;;;13.18;9.30;;;19.70;62.80;;;;;;4927250;29;20020;-85
2023/04/30 09:11:37;;;;;;;15.27;10.70;;;20.00;62.00;;;;;;4910842;29;20032;-86
2023/04/30 09:14:03;;;;;;;16.65;10.40;;;20.70;61.70;;;;;;4909713;29;20066;-84
2023/04/30 09:16:49;;;;;;;14.05;9.77;;;21.30;59.30;;;;;;4928760;29;20092;-85
2023/04/30 09:19:25;;;;;;;15.80;8.90;;;21.80;57.20;;;;;;4919482;29;20020;-83
2023/04/30 09:21:57;;;;;;;14.00;8.93;;;22.30;56.30;;;;;;4903042;29;20479;-90
2023/04/30 09:24:55;;;;;;;;;;;;;;;;;;;;;
2023/04/30 09:27:38;;;;;;;16.63;10.63;;;22.30;56.30;;;;;;4911865;29;20050;-89
2023/04/30 09:30:05;;;;;;;17.23;10.32;;;22.80;55.40;;;;;;4919258;29;20088;-84
2023/04/30 09:32:30;;;;;;;16.80;10.38;;;22.90;54.70;;;;;;4904607;29;20099;-83
2023/04/30 09:34:56;;;;;;;14.93;9.00;;;22.90;54.80;;;;;;4938124;29;20149;-82
2023/04/30 09:37:51;;;;;;;13.15;9.65;;;22.70;55.40;;;;;;4938353;29;20047;-91
2023/04/30 09:40:17;;;;;;;15.75;10.23;;;22.30;55.40;;;;;;4937995;29;20024;-85
2023/04/30 09:42:58;;;;;;;15.70;9.77;;;21.90;57.20;;;;;;4938795;29;20456;-85
2023/04/30 09:46:57;;;;;;;15.23;10.27;;;21.80;58.00;;;;;;4933257;29;20044;-88
2023/04/30 09:49:04;;;;;;;14.93;9.35;;;21.70;58.10;;;;;;4893755;29;20475;-88
2023/04/30 09:51:30;;;;;;;18.17;10.65;;;21.60;58.30;;;;;;4947803;29;20502;-88
2023/04/30 09:53:56;;;;;;;17.90;10.48;;;21.30;59.60;;;;;;4940409;29;20035;-85
2023/04/30 09:56:24;;;;;;;18.63;11.10;;;21.10;60.30;;;;;;4957451;29;20078;-87
2023/04/30 09:59:04;;;;;;;18.70;11.13;;;20.90;60.80;;;;;;4956428;29;20511;-85
2023/04/30 10:01:40;;;;;;;17.88;10.32;;;20.80;61.10;;;;;;4911162;29;20040;-86
2023/04/30 10:04:15;;;;;;;16.45;9.50;;;20.50;62.50;;;;;;4941039;29;20513;-85
2023/04/30 10:06:41;;;;;;;18.98;9.95;;;20.40;63.50;;;;;;4913256;29;20032;-81
2023/04/30 10:09:11;;;;;;;18.20;11.20;;;20.50;63.40;;;;;;4902165;29;20031;-83
2023/04/30 10:12:26;;;;;;;15.70;10.00;;;20.50;63.40;;;;;;4930627;29;20039;-87
2023/04/30 10:15:30;;;;;;;13.90;9.65;;;20.40;63.30;;;;;;4862951;29;20029;-89
2023/04/30 10:18:40;;;;;;;14.48;9.63;;;20.40;63.30;;;;;;4936778;29;20040;-86
2023/04/30 10:21:50;;;;;;;16.20;9.75;;;20.30;63.80;;;;;;4900590;29;20519;-85
2023/04/30 10:24:38;;;;;;;17.80;9.57;;;20.20;64.30;;;;;;4918200;29;20123;-82
2023/04/30 10:29:53;;;;;;;14.80;9.40;;;20.00;65.20;;;;;;4870737;29;20040;-86
2023/04/30 10:32:21;;;;;;;18.48;9.77;;;20.00;65.70;;;;;;4943823;29;20042;-78
2023/04/30 10:35:05;;;;;;;16.80;9.52;;;20.00;65.60;;;;;;4936221;29;20111;-80
2023/04/30 10:37:46;;;;;;;17.13;10.38;;;20.00;65.80;;;;;;4941162;29;20499;-82
2023/04/30 10:40:13;;;;;;;17.20;9.75;;;20.00;65.60;;;;;;4941137;29;20050;-86
2023/04/30 10:42:47;;;;;;;15.57;9.43;;;20.10;65.40;;;;;;4920696;29;20056;-85
2023/04/30 10:45:15;;;;;;;16.17;9.43;;;20.20;65.60;;;;;;4935810;29;20028;-84
2023/04/30 10:47:47;;;;;;;15.95;10.63;;;20.20;65.30;;;;;;4923963;29;20060;-84
2023/04/30 10:50:12;;;;;;;15.23;10.10;;;20.20;65.00;;;;;;4933593;29;20032;-86
2023/04/30 10:52:39;;;;;;;14.25;9.88;;;20.30;65.00;;;;;;4921727;29;20034;-86
2023/04/30 10:55:06;;;;;;;15.70;9.80;;;20.20;65.30;;;;;;4924645;29;20032;-84
2023/04/30 11:01:21;;;;;;;14.57;8.85;;;20.30;65.30;;;;;;4885670;29;20032;-87
2023/04/30 11:04:08;;;;;;;17.17;9.63;;;20.40;65.10;;;;;;4904930;29;20388;-85
2023/04/30 11:06:55;;;;;;;17.58;9.88;;;20.50;64.00;;;;;;4940433;29;20088;-86
2023/04/30 11:09:51;;;;;;;;;;;;;;;;;;;;;
2023/04/30 11:12:27;;;;;;;13.68;8.32;;;20.80;63.80;;;;;;4939633;29;20115;-84
2023/04/30 11:15:22;;;;;;;13.30;9.00;;;21.10;64.30;;;;;;4923734;29;20024;-89
2023/04/30 11:17:58;;;;;;;13.75;9.27;;;21.20;63.00;;;;;;4941060;29;20758;-82
2023/04/30 11:23:34;;;;;;;11.73;7.35;;;21.10;62.60;;;;;;4939133;29;20051;-87
2023/04/30 11:26:08;;;;;;;10.95;6.45;;;20.90;62.80;;;;;;4921461;29;20028;-87
2023/04/30 11:28:35;;;;;;;11.68;7.15;;;20.90;63.00;;;;;;4931737;29;20032;-84
2023/04/30 11:31:01;;;;;;;11.98;8.05;;;21.10;62.60;;;;;;4926272;29;20024;-79
2023/04/30 11:33:29;;;;;;;8.95;7.05;;;21.20;62.40;;;;;;4913487;29;20101;-78
2023/04/30 11:35:59;;;;;;;11.95;7.10;;;21.30;61.70;;;;;;4928715;29;20088;-90
2023/04/30 11:38:28;;;;;;;11.65;6.78;;;21.40;62.20;;;;;;4928360;29;20420;-82
2023/04/30 11:40:56;;;;;;;8.40;6.47;;;21.60;61.30;;;;;;4910713;29;20960;-85
2023/04/30 11:43:32;;;;;;;11.32;7.38;;;21.80;60.40;;;;;;4931543;29;20024;-87
2023/04/30 11:46:11;;;;;;;11.02;6.70;;;22.20;60.10;;;;;;4929873;29;20372;-86
2023/04/30 11:48:38;;;;;;;9.55;6.25;;;22.30;58.80;;;;;;4931233;29;20051;-78
2023/04/30 11:58:32;;;;;;;11.88;7.40;;;22.00;60.70;;;;;;4847142;29;20030;-85
2023/04/30 12:27:38;;;;;;;12.98;7.32;;;21.30;62.50;;;;;;4608815;30;20114;-85
2023/04/30 12:30:34;;;;;;;13.18;7.78;;;21.00;62.90;;;;;;4619787;30;20052;-86
2023/04/30 12:33:02;;;;;;;15.05;7.60;;;20.90;63.30;;;;;;4683288;30;20046;-82
2023/04/30 12:35:50;;;;;;;;;;;;;;;;;;;;;
2023/04/30 12:38:34;;;;;;;15.35;8.63;;;21.00;64.00;;;;;;4778382;29;20521;-85
2023/04/30 12:41:23;;;;;;;12.73;7.80;;;21.10;64.00;;;;;;4849233;29;20132;-84
2023/04/30 12:47:51;;;;;;;;;;;;;;;;;;;;;
2023/04/30 12:51:05;;;;;;;14.52;7.78;;;21.50;63.00;;;;;;4851375;29;20046;-84
2023/04/30 12:53:31;;;;;;;14.10;7.95;;;21.50;62.00;;;;;;4846135;29;20042;-82
2023/04/30 12:56:15;;;;;;;13.88;8.43;;;21.50;61.70;;;;;;4824352;29;20029;-83
2023/04/30 12:58:55;;;;;;;13.68;7.78;;;21.60;61.30;;;;;;4926338;29;20056;-83
2023/04/30 13:01:32;;;;;;;11.82;7.05;;;21.60;61.50;;;;;;4897062;29;20622;-83
2023/04/30 13:04:00;;;;;;;11.20;7.10;;;21.70;61.30;;;;;;4912259;29;20051;-82
2023/04/30 13:06:27;;;;;;;9.93;6.80;;;21.80;60.90;;;;;;4921633;29;20031;-83
2023/04/30 13:09:01;;;;;;;14.95;7.53;;;21.80;60.60;;;;;;4906266;29;20032;-84
2023/04/30 13:11:29;;;;;;;12.50;6.63;;;21.90;60.60;;;;;;4923384;29;20035;-83
2023/04/30 13:17:15;;;;;;;10.23;6.35;;;21.80;60.40;;;;;;4922581;29;20054;-84
2023/04/30 13:19:41;;;;;;;9.43;5.65;;;21.90;60.00;;;;;;4911625;29;20044;-84
2023/04/30 13:22:12;;;;;;;8.90;5.90;;;22.00;60.40;;;;;;4924832;29;20034;-84
2023/04/30 13:24:42;;;;;;;8.90;5.88;;;22.10;59.90;;;;;;4911302;29;20019;-83
2023/04/30 13:27:20;;;;;;;9.40;5.63;;;22.20;60.20;;;;;;4927275;29;20372;-83
2023/04/30 13:29:48;;;;;;;9.45;5.85;;;22.20;59.90;;;;;;4911840;29;20094;-84
2023/04/30 13:32:17;;;;;;;8.27;5.43;;;22.20;59.60;;;;;;4908259;29;20055;-84
2023/04/30 13:34:42;;;;;;;10.32;5.32;;;22.20;59.20;;;;;;4927034;29;20110;-84
2023/04/30 13:37:21;;;;;;;;;;;;;;;;;;;;;
2023/04/30 13:40:45;;;;;;;;;;;;;;;;;;;;;
2023/04/30 13:43:05;;;;;;;12.20;7.13;;;22.00;59.10;;;;;;4923049;29;20124;-84
2023/04/30 13:45:31;;;;;;;9.63;6.05;;;21.90;59.30;;;;;;4915210;29;20136;-84
2023/04/30 13:48:11;;;;;;;9.80;5.70;;;21.80;59.70;;;;;;4927781;29;20091;-84
2023/04/30 13:51:03;;;;;;;7.68;5.10;;;21.80;59.80;;;;;;4907797;29;20036;-84
2023/04/30 13:53:28;;;;;;;9.57;6.40;;;21.90;60.20;;;;;;4929347;29;20056;-84
2023/04/30 13:55:53;;;;;;;8.98;5.82;;;21.90;59.70;;;;;;4910695;29;20542;-85
2023/04/30 13:58:19;;;;;;;11.48;5.88;;;22.00;59.80;;;;;;4911753;29;20067;-86
2023/04/30 14:00:45;;;;;;;8.18;5.53;;;22.20;58.80;;;;;;4903328;29;20059;-86
2023/04/30 14:03:11;;;;;;;8.65;5.18;;;22.30;58.50;;;;;;4928117;29;20020;-85
2023/04/30 14:05:38;;;;;;;6.25;4.53;;;22.50;58.30;;;;;;4930448;29;20027;-85
2023/04/30 14:08:04;;;;;;;9.40;5.57;;;22.40;57.70;;;;;;4913284;29;20078;-86
2023/04/30 14:10:30;;;;;;;8.63;5.60;;;22.20;57.20;;;;;;4913250;29;20147;-85
2023/04/30 14:12:56;;;;;;;8.50;4.97;;;22.00;57.40;;;;;;4911830;29;20028;-86
2023/04/30 14:15:21;;;;;;;8.82;5.47;;;22.10;58.90;;;;;;4927829;29;20506;-85
2023/04/30 14:17:47;;;;;;;8.55;4.60;;;22.20;58.20;;;;;;4922436;29;20602;-86
2023/04/30 14:20:13;;;;;;;6.53;4.18;;;22.40;58.20;;;;;;4912707;29;20405;-85
2023/04/30 14:22:39;;;;;;;8.27;5.28;;;22.40;57.40;;;;;;4930131;29;20059;-86
2023/04/30 14:25:05;;;;;;;8.32;5.20;;;22.20;57.60;;;;;;4916639;29;20019;-86
2023/04/30 14:27:31;;;;;;;8.13;5.20;;;22.00;58.10;;;;;;4935810;29;20058;-85
2023/04/30 14:29:56;;;;;;;7.93;4.88;;;21.90;57.90;;;;;;4930649;29;20023;-82
2023/04/30 14:32:28;;;;;;;8.60;4.53;;;22.00;58.40;;;;;;4923696;29;20038;-84
2023/04/30 14:34:56;;;;;;;10.15;5.43;;;21.80;58.50;;;;;;4935382;29;20028;-81
2023/04/30 14:37:25;;;;;;;8.90;5.60;;;22.00;58.80;;;;;;4942801;29;20028;-86
2023/04/30 14:39:51;;;;;;;7.88;4.30;;;22.10;58.30;;;;;;4944325;29;20092;-81
2023/04/30 14:42:16;;;;;;;8.82;5.00;;;22.00;57.70;;;;;;4923435;29;20530;-84
2023/04/30 14:44:42;;;;;;;8.07;4.78;;;22.00;58.30;;;;;;4941166;29;20035;-82
2023/04/30 14:47:08;;;;;;;7.72;5.07;;;22.00;59.20;;;;;;4912937;29;21725;-85
2023/04/30 14:49:34;;;;;;;6.80;3.65;;;22.00;58.50;;;;;;4931366;29;20027;-81
2023/04/30 14:51:59;;;;;;;6.15;3.92;;;22.00;57.70;;;;;;4937602;29;20028;-80
2023/04/30 14:54:25;;;;;;;5.15;3.60;;;22.00;57.50;;;;;;4915509;29;20032;-80
2023/04/30 14:56:51;;;;;;;5.47;3.20;;;21.90;57.40;;;;;;4931660;29;20103;-79
2023/04/30 14:59:17;;;;;;;4.85;3.20;;;21.90;57.30;;;;;;4928246;29;20071;-79
2023/04/30 15:01:42;;;;;;;5.05;2.95;;;22.10;56.70;;;;;;4923548;29;20109;-80
2023/04/30 15:04:08;;;;;;;6.57;3.60;;;22.00;56.20;;;;;;4910008;29;20470;-83
2023/04/30 15:06:34;;;;;;;5.20;3.15;;;22.00;56.70;;;;;;4945938;29;20395;-83
2023/04/30 15:09:00;;;;;;;4.93;2.92;;;22.00;57.00;;;;;;4938659;29;20046;-84
2023/04/30 15:11:26;;;;;;;4.82;3.10;;;22.00;57.20;;;;;;4914486;29;20032;-82
2023/04/30 15:13:53;;;;;;;4.20;2.72;;;21.90;57.00;;;;;;4919851;29;20039;-81
2023/04/30 15:16:19;;;;;;;4.50;2.85;;;21.80;57.00;;;;;;4939816;29;20031;-82
2023/04/30 15:18:44;;;;;;;8.15;3.20;;;21.70;58.00;;;;;;4910743;29;20046;-82
2023/04/30 15:21:10;;;;;;;4.95;3.20;;;21.70;58.10;;;;;;4934233;29;20030;-84
2023/04/30 15:23:36;;;;;;;4.85;3.38;;;21.70;57.80;;;;;;4912694;29;20040;-84
2023/04/30 15:26:03;;;;;;;7.78;3.70;;;21.60;58.20;;;;;;4906349;29;20020;-82
2023/04/30 15:28:32;;;;;;;7.22;4.28;;;21.60;59.00;;;;;;4928585;29;20087;-85
2023/04/30 15:30:59;;;;;;;6.68;3.45;;;21.50;58.80;;;;;;4907019;29;20114;-78
2023/04/30 15:33:27;;;;;;;6.63;4.20;;;21.40;59.30;;;;;;4931695;29;20032;-79
2023/04/30 15:35:53;;;;;;;7.65;4.15;;;21.30;59.50;;;;;;4926594;29;20092;-78
2023/04/30 15:38:20;;;;;;;7.93;4.25;;;21.20;59.90;;;;;;4933223;29;20043;-78
2023/04/30 15:40:45;;;;;;;7.35;4.78;;;21.20;59.70;;;;;;4908260;29;20082;-78
2023/04/30 15:43:11;;;;;;;7.90;4.65;;;21.00;59.80;;;;;;4905017;29;20051;-78
2023/04/30 15:45:47;;;;;;;6.78;4.57;;;21.00;59.90;;;;;;4929224;29;20019;-84
2023/04/30 15:48:12;;;;;;;6.70;3.67;;;21.00;59.70;;;;;;4920719;29;20059;-75
2023/04/30 15:50:41;;;;;;;7.38;4.45;;;20.90;59.60;;;;;;4918268;29;20028;-80
2023/04/30 15:53:07;;;;;;;7.40;4.03;;;20.80;59.30;;;;;;4906380;29;20126;-82
2023/04/30 15:55:32;;;;;;;6.72;3.83;;;20.80;60.00;;;;;;4934192;29;20062;-78
2023/04/30 15:58:06;;;;;;;6.25;3.70;;;20.80;59.90;;;;;;4938290;29;20035;-81
2023/04/30 16:00:32;;;;;;;6.68;3.40;;;20.70;60.30;;;;;;4921999;29;20040;-77
2023/04/30 16:02:58;;;;;;;5.97;3.22;;;20.70;60.60;;;;;;4919018;29;20023;-79
2023/04/30 16:05:23;;;;;;;8.77;3.45;;;20.70;60.70;;;;;;4928149;29;20025;-78
2023/04/30 16:07:51;;;;;;;5.80;3.92;;;20.70;61.00;;;;;;4910809;29;20051;-78
2023/04/30 16:10:18;;;;;;;6.97;3.67;;;20.70;60.10;;;;;;4932717;29;20051;-82
2023/04/30 16:12:44;;;;;;;5.45;2.92;;;20.50;60.10;;;;;;4912548;29;20039;-78
2023/04/30 16:15:10;;;;;;;4.90;2.90;;;20.50;60.30;;;;;;4899827;29;20024;-79
2023/04/30 16:17:36;;;;;;;4.43;2.42;;;20.50;60.20;;;;;;4930869;29;20051;-79
2023/04/30 16:20:02;;;;;;;3.92;2.53;;;20.40;59.70;;;;;;4910113;29;20020;-79
2023/04/30 16:22:29;;;;;;;4.32;2.20;;;20.40;60.30;;;;;;4912662;29;20028;-79
2023/04/30 16:24:57;;;;;;;6.47;2.67;;;20.40;60.30;;;;;;4912171;29;20051;-79
2023/04/30 16:27:23;;;;;;;5.15;2.72;;;20.40;60.40;;;;;;4921787;29;20484;-78
2023/04/30 16:29:48;;;;;;;4.25;3.08;;;20.40;60.10;;;;;;4917826;29;20083;-78
2023/04/30 16:32:14;;;;;;;4.55;2.47;;;20.50;60.00;;;;;;4934549;29;20087;-77
2023/04/30 16:34:40;;;;;;;6.63;2.40;;;20.40;60.00;;;;;;4927420;29;20115;-76
2023/04/30 16:37:06;;;;;;;4.45;2.50;;;20.50;59.90;;;;;;4926240;29;20035;-77
2023/04/30 16:39:31;;;;;;;4.32;2.90;;;20.40;60.10;;;;;;4931813;29;20035;-76
2023/04/30 16:42:25;;;;;;;5.45;2.80;;;20.50;60.30;;;;;;4904901;29;20040;-89
2023/04/30 16:44:51;;;;;;;5.22;3.10;;;20.50;60.40;;;;;;4917298;29;20047;-80
2023/04/30 16:47:18;;;;;;;4.38;2.85;;;20.50;60.20;;;;;;4929065;29;20048;-77
2023/04/30 16:49:44;;;;;;;6.78;3.80;;;20.40;60.10;;;;;;4923491;29;20016;-79
2023/04/30 16:52:10;;;;;;;7.32;3.33;;;20.40;59.90;;;;;;4916364;29;20091;-76
2023/04/30 16:54:38;;;;;;;5.68;2.60;;;20.30;59.80;;;;;;4929375;29;20027;-83
2023/04/30 16:57:04;;;;;;;7.45;3.08;;;20.30;60.20;;;;;;4932358;29;20140;-77
2023/04/30 16:59:29;;;;;;;5.53;2.58;;;20.40;60.50;;;;;;4933482;29;20051;-79
2023/04/30 17:01:57;;;;;;;7.78;3.85;;;20.30;60.40;;;;;;4929352;29;20086;-76
2023/04/30 17:04:23;;;;;;;5.25;3.47;;;20.30;60.30;;;;;;4905984;29;20459;-80
2023/04/30 17:06:49;;;;;;;5.75;3.60;;;20.30;60.40;;;;;;4915758;29;20040;-80
2023/04/30 17:09:15;;;;;;;6.03;3.25;;;20.20;60.50;;;;;;4903290;29;20805;-78
2023/04/30 17:11:41;;;;;;;8.10;3.70;;;20.10;60.60;;;;;;4927469;29;20118;-75
2023/04/30 17:14:07;;;;;;;4.82;3.53;;;20.10;61.00;;;;;;4926341;29;20083;-77
2023/04/30 17:16:33;;;;;;;5.18;3.45;;;20.10;61.00;;;;;;4910777;29;20695;-77
2023/04/30 17:18:58;;;;;;;5.95;3.05;;;20.10;60.90;;;;;;4928369;29;20040;-79
2023/04/30 17:21:24;;;;;;;4.38;2.55;;;20.00;61.20;;;;;;4910560;29;20061;-79
2023/04/30 17:23:49;;;;;;;4.38;2.53;;;20.00;61.40;;;;;;4909462;29;20069;-80
2023/04/30 17:26:17;;;;;;;6.63;2.80;;;19.90;61.60;;;;;;4934089;29;20031;-77
2023/04/30 17:28:42;;;;;;;4.05;2.35;;;19.80;61.60;;;;;;4925120;29;20038;-75
2023/04/30 17:31:08;;;;;;;3.53;2.15;;;19.80;61.80;;;;;;4919022;29;20080;-77
2023/04/30 17:33:34;;;;;;;4.28;2.15;;;19.80;62.00;;;;;;4940524;29;20483;-77
2023/04/30 17:36:00;;;;;;;4.85;2.03;;;19.80;62.20;;;;;;4956736;28;20484;-81
2023/04/30 17:38:26;;;;;;;2.67;1.67;;;19.70;62.00;;;;;;4939898;29;20064;-76
2023/04/30 17:40:52;;;;;;;3.80;1.77;;;19.80;62.10;;;;;;4940220;29;20054;-79
2023/04/30 17:43:18;;;;;;;4.13;1.83;;;19.80;61.90;;;;;;4924349;29;20040;-78
2023/04/30 17:45:44;;;;;;;4.75;2.72;;;19.70;61.80;;;;;;4952338;29;20509;-78
2023/04/30 17:48:09;;;;;;;4.80;2.20;;;19.80;61.90;;;;;;4919215;29;20052;-78
2023/04/30 17:50:35;;;;;;;3.40;1.98;;;19.70;62.20;;;;;;4902117;29;20514;-76
2023/04/30 17:53:01;;;;;;;3.22;1.98;;;19.70;62.50;;;;;;4931184;29;20483;-76
2023/04/30 17:55:27;;;;;;;4.88;2.70;;;19.70;62.90;;;;;;4933319;29;20043;-76
2023/04/30 17:57:53;;;;;;;5.55;2.90;;;19.80;62.80;;;;;;4919223;29;20028;-77
2023/04/30 18:00:19;;;;;;;6.18;2.92;;;19.80;62.90;;;;;;4926943;29;20027;-78
2023/04/30 18:02:44;;;;;;;4.47;2.60;;;19.80;62.70;;;;;;4919302;29;20035;-80
2023/04/30 18:05:19;;;;;;;4.15;2.28;;;19.70;62.30;;;;;;4929132;29;20099;-77
2023/04/30 18:07:44;;;;;;;3.67;2.10;;;19.60;62.20;;;;;;4913220;29;20028;-79
2023/04/30 18:10:10;;;;;;;5.70;2.53;;;19.60;62.40;;;;;;4931252;29;20024;-77
2023/04/30 18:12:37;;;;;;;3.70;2.00;;;19.60;62.40;;;;;;4909226;29;20043;-75
2023/04/30 18:15:04;;;;;;;2.75;1.98;;;19.50;62.40;;;;;;4928687;29;20013;-78
2023/04/30 18:17:31;;;;;;;2.75;1.73;;;19.50;62.40;;;;;;4911075;29;20036;-83
2023/04/30 18:19:56;;;;;;;3.80;2.03;;;19.40;62.10;;;;;;4926294;29;20016;-80
2023/04/30 18:22:22;;;;;;;3.35;1.98;;;19.40;62.30;;;;;;4928254;29;20080;-83
2023/04/30 18:24:48;;;;;;;4.50;2.40;;;19.30;62.30;;;;;;4912385;29;20024;-79
2023/04/30 18:27:13;;;;;;;3.92;2.33;;;19.30;62.20;;;;;;4928864;29;20028;-78
2023/04/30 18:29:40;;;;;;;4.53;2.38;;;19.30;62.20;;;;;;4907393;29;20487;-84
2023/04/30 18:32:06;;;;;;;4.70;2.30;;;19.20;62.30;;;;;;4909212;29;20039;-78
2023/04/30 18:34:31;;;;;;;4.60;2.83;;;19.20;62.70;;;;;;4924880;29;20035;-78
2023/04/30 18:36:57;;;;;;;5.50;2.63;;;19.10;63.00;;;;;;4927190;29;20040;-81
2023/04/30 18:39:23;;;;;;;4.35;2.33;;;19.10;63.10;;;;;;4927587;29;20039;-80
2023/04/30 18:41:48;;;;;;;4.75;2.63;;;19.00;63.00;;;;;;4923848;29;20035;-80
2023/04/30 18:44:14;;;;;;;5.72;3.28;;;19.00;63.30;;;;;;4907473;29;20056;-80
2023/04/30 18:46:41;;;;;;;5.95;2.88;;;18.90;63.30;;;;;;4924996;29;20067;-80
2023/04/30 18:49:07;;;;;;;5.78;2.80;;;18.80;63.60;;;;;;4927503;29;20182;-80
2023/04/30 18:51:32;;;;;;;5.85;2.92;;;18.70;64.00;;;;;;4910635;29;20056;-81
2023/04/30 18:53:59;;;;;;;4.32;2.63;;;18.60;64.40;;;;;;4914526;29;20747;-80
2023/04/30 18:56:24;;;;;;;5.00;3.13;;;18.60;64.50;;;;;;4915213;29;20035;-81
2023/04/30 18:58:50;;;;;;;6.75;3.40;;;18.50;64.50;;;;;;4912157;29;20020;-80
2023/04/30 19:01:17;;;;;;;5.65;3.17;;;18.40;64.60;;;;;;4930686;29;20035;-80
2023/04/30 19:03:43;;;;;;;6.78;3.53;;;18.30;64.80;;;;;;4913739;29;20487;-81
2023/04/30 19:06:08;;;;;;;7.35;3.95;;;18.30;65.10;;;;;;4911770;29;20372;-81
2023/04/30 19:08:34;;;;;;;5.55;3.63;;;18.20;65.30;;;;;;4930831;29;20028;-81
2023/04/30 19:11:00;;;;;;;6.18;3.38;;;18.20;65.40;;;;;;4929360;29;20035;-81
2023/04/30 19:13:25;;;;;;;6.85;3.83;;;18.10;65.60;;;;;;4927575;29;20043;-80
2023/04/30 19:15:52;;;;;;;6.68;4.47;;;18.10;65.80;;;;;;4921464;29;20031;-84
2023/04/30 19:18:19;;;;;;;8.68;4.55;;;18.00;65.60;;;;;;4912523;29;20499;-79